METAR Data
IDs: Format: Raw Decoded Include TAF

Data at: 0146 UTC 25 Mar 2019

KSHL 250135Z AUTO 03009KT 4SM BR OVC003 05/04 A3017 RMK AO2
KSHL 250115Z AUTO 02013KT 7SM BKN005 OVC050 05/05 A3016 RMK AO2
KSHL 250055Z AUTO 02009KT 7SM FEW007 SCT012 BKN050 06/06 A3015 RMK AO2
KSHL 250035Z AUTO 03011KT 9SM SCT011 OVC065 06/06 A3014 RMK AO2
KSHL 250015Z AUTO 03011KT 9SM FEW011 OVC060 07/07 A3014 RMK AO2
KSHL 242355Z AUTO 02007KT 10SM FEW050 OVC060 07/07 A3013 RMK AO2
KSHL 242335Z AUTO 02009KT 10SM FEW042 BKN049 OVC060 07/07 A3012 RMK AO2
KSHL 242315Z AUTO 02009KT 10SM BKN041 OVC048 07/07 A3011 RMK AO2
KSHL 242255Z AUTO 03011KT 9SM OVC042 07/07 A3011 RMK AO2
KSHL 242235Z AUTO 03014KT 10SM OVC042 08/08 A3010 RMK AO2
KSHL 242215Z AUTO 03017KT 10SM OVC042 09/08 A3010 RMK AO2
KSHL 242155Z AUTO 03016G22KT 10SM BKN043 OVC060 09/09 A3009 RMK AO2
KSHL 242135Z AUTO 03015G20KT 10SM OVC060 11/08 A3008 RMK AO2
KSHL 242115Z AUTO 03016KT 10SM BKN060 11/08 A3007 RMK AO2
KSHL 242055Z AUTO 05013KT 10SM FEW029 FEW038 FEW060 12/08 A3006 RMK AO2
KSHL 242035Z AUTO 05013G18KT 10SM SCT030 BKN038 12/08 A3006 RMK AO2
KSHL 242015Z AUTO 05013KT 10SM FEW030 SCT037 SCT055 12/08 A3005 RMK AO2
KSHL 241955Z AUTO 05014KT 10SM BKN055 10/08 A3005 RMK AO2
KSHL 241935Z AUTO 05011KT 10SM FEW034 BKN039 OVC055 10/08 A3006 RMK AO2
KSHL 241915Z AUTO 05010KT 10SM SCT029 BKN034 OVC041 09/08 A3006 RMK AO2
KSHL 241855Z AUTO 05015KT 10SM OVC029 09/08 A3006 RMK AO2
KSHL 241835Z AUTO 05016KT 10SM OVC033 10/08 A3006 RMK AO2
KSHL 241815Z AUTO 03014KT 10SM OVC034 10/09 A3006 RMK AO2
KSHL 241755Z AUTO 06015G23KT 10SM OVC034 10/07 A3005 RMK AO2
KSHL 241735Z AUTO 05016KT 10SM SCT037 BKN055 10/08 A3005 RMK AO2
KSHL 241715Z AUTO 05016KT 10SM FEW040 BKN050 OVC055 09/07 A3005 RMK AO2
KSHL 241655Z AUTO 04016KT 10SM BKN048 OVC065 09/08 A3005 RMK AO2
KSHL 241635Z AUTO 03014KT 10SM OVC060 08/08 A3005 RMK AO2
KSHL 241615Z AUTO 03011KT 10SM SCT050 OVC060 06/06 A3005 RMK AO2
KSHL 241555Z AUTO 04011KT 7SM OVC050 06/06 A3005 RMK AO2
KSHL 241535Z AUTO 07007KT 5SM BR SCT005 OVC048 06/05 A3004 RMK AO2
KSHL 241515Z AUTO 05010KT 3SM BR OVC004 05/05 A3004 RMK AO2
KSHL 241455Z AUTO 05010KT 3SM BR OVC004 05/05 A3003 RMK AO2
KSHL 241435Z AUTO 05009KT 2SM BR OVC003 05/05 A3003 RMK AO2
KSHL 241415Z AUTO 05009KT 3SM BR OVC004 04/04 A3003 RMK AO2
KSHL 241355Z AUTO 06009KT 4SM BR OVC004 04/04 A3003 RMK AO2
KSHL 241335Z AUTO 05008KT 6SM BR OVC006 04/04 A3002 RMK AO2
KSHL 241315Z AUTO 04008KT 8SM BKN007 OVC038 04/04 A3002 RMK AO2
KSHL 241255Z AUTO 02009KT 9SM FEW007 OVC036 04/04 A3001 RMK AO2
KSHL 241235Z AUTO 03007KT 8SM BKN035 OVC048 04/04 A3001 RMK AO2
KSHL 241215Z AUTO 04007KT 10SM BKN032 OVC050 04/04 A3000 RMK AO2
KSHL 241155Z AUTO 05007KT 10SM SCT008 OVC032 04/04 A3000 RMK AO2
KSHL 241135Z AUTO 06007KT 10SM BKN008 OVC035 04/04 A3000 RMK AO2
KSHL 241115Z AUTO 05007KT 10SM OVC036 04/04 A3000 RMK AO2
KSHL 241055Z AUTO 07006KT 10SM OVC037 04/04 A2999 RMK AO2
KSHL 241035Z AUTO 05008KT 10SM OVC036 04/04 A2999 RMK AO2
KSHL 241015Z AUTO 06008KT 10SM OVC033 04/04 A2999 RMK AO2
KSHL 240955Z AUTO 05007KT 10SM BKN029 OVC033 04/04 A2999 RMK AO2
KSHL 240935Z AUTO 06006KT 10SM OVC029 05/04 A2999 RMK AO2
KSHL 240915Z AUTO 07007KT 10SM 05/05 A3000 RMK AO2
KSHL 240855Z AUTO 08006KT 10SM 05/05 A3000 RMK AO2
KSHL 240835Z AUTO 06007KT 10SM 05/05 A3000 RMK AO2
KSHL 240815Z AUTO 06007KT 10SM OVC033 05/05 A3000 RMK AO2
KSHL 240755Z AUTO 08006KT 10SM OVC034 05/05 A3001 RMK AO2
KSHL 240735Z AUTO 06008KT 10SM 05/05 A3001 RMK AO2
KSHL 240715Z AUTO 07008KT 10SM OVC033 05/05 A3001 RMK AO2
KSHL 240655Z AUTO 06006KT 10SM OVC033 06/06 A3001 RMK AO2
KSHL 240635Z AUTO 07008KT 10SM OVC033 06/06 A3002 RMK AO2
KSHL 240615Z AUTO 08008KT 10SM OVC031 06/06 A3002 RMK AO2
KSHL 240555Z AUTO 08007KT 10SM 06/06 A3002 RMK AO2
KSHL 240535Z AUTO 09007KT 10SM BKN033 OVC070 06/06 A3003 RMK AO2
KSHL 240515Z AUTO 10009KT 10SM 06/06 A3003 RMK AO2
KSHL 240455Z AUTO 10008KT 10SM 06/06 A3003 RMK AO2
KSHL 240435Z AUTO 11007KT 10SM 06/06 A3004 RMK AO2
KSHL 240415Z AUTO 11007KT 10SM OVC060 06/06 A3004 RMK AO2
KSHL 240355Z AUTO 11008KT 10SM 06/06 A3004 RMK AO2
KSHL 240335Z AUTO 11008KT 10SM 06/06 A3004 RMK AO2
KSHL 240315Z AUTO 10009KT 10SM 07/06 A3004 RMK AO2
KSHL 240255Z AUTO 09008KT 10SM FEW050 OVC060 07/07 A3004 RMK AO2
KSHL 240235Z AUTO 11009KT 10SM SCT050 OVC060 07/07 A3004 RMK AO2
KSHL 240215Z AUTO 11010KT 10SM OVC060 07/07 A3004 RMK AO2
KSHL 240155Z AUTO 11011KT 10SM OVC065 07/07 A3003 RMK AO2
KSHL 240135Z AUTO 11009KT 10SM OVC070 07/07 A3004 RMK AO2
KSHL 240115Z AUTO 11008KT 10SM OVC070 07/07 A3003 RMK AO2
KSHL 240055Z AUTO 12007KT 10SM OVC070 08/07 A3004 RMK AO2
KSHL 240035Z AUTO 09009KT 10SM OVC070 08/07 A3003 RMK AO2
KSHL 240015Z AUTO 08009KT 10SM OVC070 08/08 A3002 RMK AO2
KSHL 232355Z AUTO 08009KT 10SM FEW055 BKN065 OVC075 09/08 A3003 RMK AO2
KSHL 232335Z AUTO 11007KT 10SM FEW055 BKN075 OVC095 09/08 A3005 RMK AO2
KSHL 232315Z AUTO 12010KT 10SM SCT055 BKN085 OVC110 10/05 A3005 RMK AO2
KSHL 232255Z AUTO 12007KT 10SM BKN055 BKN070 OVC110 10/09 A3005 RMK AO2
KSHL 232235Z AUTO 12006KT 10SM BKN055 OVC065 10/09 A3006 RMK AO2
KSHL 232215Z AUTO 13006KT 10SM BKN055 OVC065 11/07 A3006 RMK AO2
KSHL 232155Z AUTO 11005KT BKN055 BKN075 11/06 A3006 RMK AO2
KSHL 232135Z AUTO 14006KT 10SM BKN060 BKN075 11/05 A3007 RMK AO2
KSHL 232115Z AUTO 16009KT 10SM BKN065 BKN080 11/06 A3007 RMK AO2
KSHL 232055Z AUTO 14010KT 10SM SCT065 BKN085 12/05 A3007 RMK AO2
KSHL 232035Z AUTO 14011KT 10SM FEW065 FEW090 12/05 A3007 RMK AO2
KSHL 232015Z AUTO 10SM FEW085 12/05 A3006 RMK AO2
KSHL 231955Z AUTO 16011G16KT 10SM FEW100 12/04 A3007 RMK AO2
KSHL 231935Z AUTO 15009G15KT 10SM FEW100 12/05 A3008 RMK AO2
KSHL 231915Z AUTO 15011KT 10SM CLR 13/05 A3009 RMK AO2
KSHL 231855Z AUTO 14011G16KT 10SM CLR 12/06 A3010 RMK AO2
KSHL 231835Z AUTO 14015KT 10SM CLR 12/06 A3010 RMK AO2
KSHL 231815Z AUTO 14013KT 10SM CLR 11/06 A3012 RMK AO2
KSHL 231755Z AUTO 15013KT 10SM CLR 10/05 A3012 RMK AO2
KSHL 231735Z AUTO 16014KT 10SM CLR 10/05 A3013 RMK AO2
KSHL 231715Z AUTO 15013KT 10SM CLR 10/05 A3013 RMK AO2
KSHL 231655Z AUTO 14013KT 10SM CLR 09/05 A3014 RMK AO2
KSHL 231635Z AUTO 15014KT 10SM CLR 08/05 A3015 RMK AO2
KSHL 231615Z AUTO 16013KT 10SM CLR 07/05 A3015 RMK AO2
KSHL 231555Z AUTO 15011KT 10SM CLR 06/05 A3015 RMK AO2
KSHL 231535Z AUTO 13010KT 10SM CLR 06/05 A3014 RMK AO2
KSHL 231515Z AUTO 13009KT 10SM CLR 05/05 A3015 RMK AO2
KSHL 231455Z AUTO 13006G11KT 10SM CLR 04/04 A3015 RMK AO2
KSHL 231435Z AUTO 13008KT 10SM CLR 03/03 A3015 RMK AO2
KSHL 231415Z AUTO 12005KT 10SM CLR 03/03 A3015 RMK AO2
KSHL 231355Z AUTO 12006KT 7SM CLR 02/02 A3016 RMK AO2